Friday, December 14, 2018, 7:01 PM EST
Back to Local

KRDG, Reading Regional Airport

Location: Reading, PA, United States Lat: 40.367
Local Time: 7:01 PM EST ( 0:01 GMT) Lon: -75.967
Time Zone: US/Eastern Elev: 344 ft

Show me the last for .
Show Decoded

2018-12-14 18:31 METAR KRDG 142331Z 26003KT 1/2SM R36/5500VP6000FT SCT009 OVC070 06/06 A3032 RMK
                 AO2 SFC VIS 10 T00560056 =
2018-12-14 17:54 METAR KRDG 142254Z 00000KT 1/2SM R36/6000VP6000FT FG BKN005 OVC008 06/06 A3033
                 RMK AO2 RAB15E25 SLP276 P0000 T00560056 =
2018-12-14 17:01 METAR KRDG 142201Z 36003KT 1/2SM R36/5500V6000FT FG OVC003 06/06 A3033 RMK AO2
                 T00560056 =
2018-12-14 16:54 METAR KRDG 142154Z 36004KT 1/2SM R36/5500VP6000FT FG BKN005 OVC070 06/06 A3033
                 RMK AO2 SLP277 T00560056 =
2018-12-14 16:19 METAR KRDG 142119Z 36004KT 1/4SM R36/P6000FT BR BKN005 OVC070 06/06 A3033 RMK
                 AO2 T00560056 =
2018-12-14 16:09 METAR KRDG 142109Z 36004KT 3/4SM R36/P6000FT BR FEW003 BKN011 OVC080 06/06 A3033
                 RMK AO2 SFC VIS 10 T00560056 =
2018-12-14 15:54 METAR KRDG 142054Z 36003KT 3/4SM R36/5500VP6000FT BR FEW005 BKN009 OVC070 06/06
                 A3032 RMK AO2 SFC VIS 10 SLP275 60000 T00560056 55007 =
2018-12-14 14:54 METAR KRDG 141954Z AUTO 00000KT 3/4SM R36/5500VP6000FT BR OVC006 06/06 A3032 RMK
                 AO2 SFC VIS 10 RAB07E13 SLP275 P0000 T00610061 =
2018-12-14 14:34 METAR KRDG 141934Z 00000KT 3/4SM R36/P6000FT BR OVC005 06/06 A3032 RMK AO2 SFC
                 VIS 10 RAB07E13 P0000 T00560056 =
2018-12-14 13:54 METAR KRDG 141854Z 00000KT 3/4SM R36/P6000FT BR OVC004 06/06 A3033 RMK AO2 SFC
                 VIS 10 SLP279 T00560056 =
2018-12-14 13:29 METAR KRDG 141829Z 00000KT 3/4SM R36/P6000FT BR OVC004 06/06 A3033 RMK AO2 SFC
                 VIS 10 T00560056 =
2018-12-14 12:54 METAR KRDG 141754Z 34006KT 3/4SM R36/P6000FT BR OVC006 06/05 A3034 RMK AO2 SFC
                 VIS 10 SLP283 T00560050 10056 20017 56029 =
2018-12-14 12:42 METAR KRDG 141742Z 33005KT 3/4SM R36/P6000FT BR OVC005 06/05 A3035 RMK AO2 SFC
                 VIS 10 T00560050 =
2018-12-14 11:54 METAR KRDG 141654Z 33003KT 3/4SM R36/P6000FT BR OVC004 05/05 A3037 RMK AO2 SFC
                 VIS 10 SLP291 T00500050 =
2018-12-14 10:54 METAR KRDG 141554Z 01004KT 3/4SM R36/5500VP6000FT BR OVC003 04/04 A3040 RMK AO2
                 SFC VIS 10 SLP304 T00390039 =
2018-12-14 09:54 METAR KRDG 141454Z 35004KT 3/4SM R36/5500V6000FT BR OVC003 03/03 A3043 RMK AO2
                 SFC VIS 10 SLP313 T00330033 58002 =
2018-12-14 08:54 METAR KRDG 141354Z 01004KT 3/4SM R36/6000VP6000FT BR OVC003 02/02 A3044 RMK AO2
                 SFC VIS 10 SLP317 T00220022 =
2018-12-14 08:08 METAR KRDG 141308Z 30004KT 3/4SM R36/P6000FT BR OVC003 02/02 A3044 RMK AO2 SFC
                 VIS 10 T00220022 =
2018-12-14 07:54 METAR KRDG 141254Z 28003KT 1SM R36/P6000FT OVC003 02/02 A3044 RMK AO2 SFC VIS 10
                 SLP315 T00220022 =
2018-12-14 06:54 METAR KRDG 141154Z 02004KT 1SM R36/P6000FT OVC003 02/02 A3044 RMK AO2 SFC VIS 10
                 SLP315 T00170017 10017 20006 53007 =
2018-12-14 06:01 METAR KRDG 141101Z 35003KT 1SM R36/P6000FT OVC003 02/02 A3041 RMK AO2 SFC VIS 10
                 T00170017 =
2018-12-14 05:54 METAR KRDG 141054Z 34004KT 10SM OVC003 02/02 A3041 RMK AO2 SLP306 T00170017 =
2018-12-14 04:54 METAR KRDG 140954Z AUTO 36004KT 10SM OVC003 02/02 A3041 RMK AO2 SLP305 T00170017
                 =
2018-12-14 03:54 METAR KRDG 140854Z AUTO 36004KT 10SM OVC003 01/01 A3042 RMK AO2 SLP307 T00110011
                 58003 =
2018-12-14 02:54 METAR KRDG 140754Z AUTO 01003KT 10SM OVC004 01/01 A3043 RMK AO2 SLP313 T00110011
                 =
2018-12-14 01:54 METAR KRDG 140654Z AUTO 01003KT 10SM OVC004 01/01 A3043 RMK AO2 SLP311 T00110011
                 =
2018-12-14 01:44 METAR KRDG 140644Z AUTO 02004KT 10SM OVC004 01/01 A3042 RMK AO2 CIG 003V006
                 T00060006 =
2018-12-14 00:54 METAR KRDG 140554Z AUTO 36004KT 10SM OVC007 01/00 A3043 RMK AO2 SLP310 T00060000
                 10006 21006 58004 =
2018-12-14 00:16 METAR KRDG 140516Z AUTO 34004KT 10SM BKN010 OVC060 01/00 A3043 RMK AO2 T00060000
                 =
2018-12-13 23:54 METAR KRDG 140454Z 01003KT 6SM OVC060 00/00 A3043 RMK AO2 SLP310 T00000000
                 400721006 =
2018-12-13 22:54 METAR KRDG 140354Z 01005KT 10SM BKN060 00/M01 A3044 RMK AO2 SLP315 T00001006 =
2018-12-13 21:54 METAR KRDG 140254Z 36003KT 10SM CLR M01/M01 A3044 RMK AO2 SLP315 T10061011 51013
                 =
2018-12-13 20:54 METAR KRDG 140154Z 01005KT 10SM CLR 00/M01 A3043 RMK AO2 SLP312 T00001006 =
2018-12-13 19:54 METAR KRDG 140054Z 02005KT 10SM SCT055 01/M01 A3043 RMK AO2 SLP311 T00061006 =

Support USWX by starting your Amazon purchase here.